Knoxville, Tennessee
Current Conditions -  °F | °C
As of 10:53 AM on Saturday 22 Nov 2014 (Local Time) from KTYS Reporting Station
Broken Clouds Broken Clouds  
Wind Chill:   Ceiling: 25000
Heat Index:   Visibility: 10mi
Dew Point: -5°   Wind: 0mph
Humidity: 42%   Direction: NA
Pressure: 30.42"   Gusts: NA
Location:  35.96°N, 83.92°W
Report Text: KTYS 221553Z 00000KT 10SM BKN250 07/M05 A3042 RMK AO2 SLP305 T00721050
Loading
Personal Weather Stations






























Interactive Weather Map New forecast layout! Learn more

10-Day Weather Forecast

Advertisements
Track Severe Weather on mobile